Time;durP1;ratioP1;P1;durP2;ratioP2;P2;SDS_P1;SDS_P2;PMS_P1;PMS_P2;Temp;Humidity;BMP_temperature;BMP_pressure;BME280_temperature;BME280_humidity;BME280_pressure;Samples;Min_cycle;Max_cycle;Signal;HPM_P1;HPM_P2
2022/04/20 00:01:22;;;;;;;16.60;10.80;;;;;;;6.60;70.34;100181.22;5351198;32;45302;-69
2022/04/20 00:04:24;;;;;;;18.10;10.95;;;;;;;6.42;70.17;100185.13;5385190;32;34553;-69
2022/04/20 00:07:27;;;;;;;17.07;11.13;;;;;;;6.42;69.73;100178.16;5342847;32;34551;-76
2022/04/20 00:10:30;;;;;;;18.23;11.77;;;;;;;6.97;68.26;100187.16;5365160;32;34511;-77
2022/04/20 00:13:32;;;;;;;17.97;11.70;;;;;;;7.31;67.05;100184.44;5349637;32;34728;-76
2022/04/20 00:16:34;;;;;;;18.43;11.60;;;;;;;6.68;68.01;100185.31;5343977;32;36158;-77
2022/04/20 00:19:36;;;;;;;17.57;11.37;;;;;;;5.92;72.25;100190.69;5364562;32;34603;-69
2022/04/20 00:22:39;;;;;;;18.43;11.57;;;;;;;5.81;72.16;100187.44;5343967;32;34390;-69
2022/04/20 00:25:41;;;;;;;19.93;12.17;;;;;;;6.00;72.28;100187.91;5342987;32;35410;-72
2022/04/20 00:28:43;;;;;;;17.40;10.87;;;;;;;6.20;71.15;100193.50;5370561;32;34233;-70
2022/04/20 00:32:22;;;;;;;18.70;11.80;;;;;;;7.36;66.76;100188.69;5385111;32;34615;-70
2022/04/20 00:35:30;;;;;;;21.37;11.87;;;;;;;6.27;70.72;100199.44;5378682;32;35197;-78
2022/04/20 00:38:34;;;;;;;19.77;12.10;;;;;;;5.91;72.03;100204.62;5368317;32;34949;-79
2022/04/20 00:41:36;;;;;;;20.42;12.37;;;;;;;5.76;72.85;100207.56;5355342;32;34123;-79
2022/04/20 00:44:43;;;;;;;20.13;12.30;;;;;;;6.07;72.11;100210.34;5340490;32;34497;-77
2022/04/20 00:47:45;;;;;;;18.83;12.00;;;;;;;5.71;72.07;100209.41;5350045;32;35882;-77
2022/04/20 00:50:47;;;;;;;19.53;12.47;;;;;;;5.81;72.98;100203.09;5346664;32;35536;-76
2022/04/20 00:53:49;;;;;;;19.83;13.00;;;;;;;5.83;71.96;100198.69;5347987;32;35066;-77
2022/04/20 00:56:52;;;;;;;18.83;12.00;;;;;;;5.28;75.40;100209.44;5356226;32;44909;-76
2022/04/20 00:59:56;;;;;;;24.03;12.77;;;;;;;5.78;74.45;100202.28;5363908;32;34336;-78
2022/04/20 01:02:58;;;;;;;19.73;12.07;;;;;;;5.92;72.77;100200.25;5386054;32;34032;-69
2022/04/20 01:06:01;;;;;;;19.23;12.50;;;;;;;6.55;69.83;100199.59;5383876;32;34416;-77
2022/04/20 01:09:03;;;;;;;21.33;12.50;;;;;;;7.06;67.36;100192.13;5368268;32;34976;-69
2022/04/20 01:12:06;;;;;;;23.50;12.60;;;;;;;5.96;70.59;100208.00;5384400;32;34076;-78
2022/04/20 01:15:10;;;;;;;18.80;12.37;;;;;;;5.84;72.59;100204.75;5380928;32;35117;-70
2022/04/20 01:18:13;;;;;;;18.33;11.57;;;;;;;5.36;74.33;100218.84;5394973;32;36398;-69
2022/04/20 01:21:15;;;;;;;19.95;12.27;;;;;;;5.95;72.78;100206.28;5377956;32;34053;-78
2022/04/20 01:24:18;;;;;;;20.23;12.63;;;;;;;5.75;72.47;100212.81;5371393;32;34219;-77
2022/04/20 01:27:20;;;;;;;19.07;11.73;;;;;;;6.06;71.39;100213.00;5364274;32;34958;-76
2022/04/20 01:30:22;;;;;;;17.97;11.17;;;;;;;5.53;72.23;100217.59;5383479;32;44420;-78
2022/04/20 01:33:25;;;;;;;20.57;11.10;;;;;;;5.74;71.57;100211.09;5362353;32;35139;-77
2022/04/20 01:36:27;;;;;;;18.90;11.53;;;;;;;5.54;72.32;100208.91;5383138;32;34676;-71
2022/04/20 01:39:29;;;;;;;19.73;11.30;;;;;;;5.47;73.00;100205.56;5385332;32;33973;-77
2022/04/20 01:42:32;;;;;;;16.87;11.53;;;;;;;5.53;72.40;100217.59;5377279;32;33681;-67
2022/04/20 01:45:34;;;;;;;21.70;12.80;;;;;;;5.47;73.48;100217.75;5396918;32;33950;-77
2022/04/20 01:48:36;;;;;;;19.90;11.87;;;;;;;5.90;70.54;100213.31;5392708;32;34746;-76
2022/04/20 01:51:50;;;;;;;19.13;11.90;;;;;;;6.74;67.61;100211.28;5364285;32;35577;-69
2022/04/20 01:54:52;;;;;;;19.25;11.73;;;;;;;6.50;68.21;100215.41;5386481;32;44008;-69
2022/04/20 01:57:55;;;;;;;17.17;10.90;;;;;;;6.24;67.97;100215.16;5350832;32;35659;-70
2022/04/20 02:00:57;;;;;;;19.20;12.10;;;;;;;6.09;69.36;100213.78;5402167;32;34783;-76
2022/04/20 02:03:59;;;;;;;20.27;11.90;;;;;;;5.84;69.63;100210.84;5367861;32;33715;-77
2022/04/20 02:07:02;;;;;;;19.40;11.47;;;;;;;5.77;71.09;100208.41;5352924;32;35686;-76
2022/04/20 02:10:05;;;;;;;18.17;11.27;;;;;;;5.53;72.25;100212.41;5366508;32;35801;-77
2022/04/20 02:13:07;;;;;;;22.75;11.43;;;;;;;5.24;73.89;100210.41;5368712;32;34865;-69
2022/04/20 02:16:10;;;;;;;19.83;11.60;;;;;;;6.11;69.86;100204.16;5400036;32;34788;-76
2022/04/20 02:19:12;;;;;;;20.60;12.67;;;;;;;5.21;73.66;100198.28;5372971;32;34594;-70
2022/04/20 02:22:14;;;;;;;18.83;11.67;;;;;;;5.60;71.86;100200.94;5389549;32;35405;-69
2022/04/20 02:25:16;;;;;;;21.23;12.23;;;;;;;5.30;73.41;100200.72;5384131;32;38037;-69
2022/04/20 02:28:18;;;;;;;21.27;12.57;;;;;;;4.98;75.31;100203.09;5374337;32;36379;-76
2022/04/20 02:31:20;;;;;;;19.60;11.50;;;;;;;5.77;72.82;100193.63;5380908;32;34854;-76
2022/04/20 02:34:23;;;;;;;18.30;11.20;;;;;;;6.15;70.46;100200.59;5366111;32;45192;-76
2022/04/20 02:37:25;;;;;;;20.37;11.27;;;;;;;6.71;67.99;100200.06;5384194;32;35317;-77
2022/04/20 02:40:27;;;;;;;19.77;12.10;;;;;;;7.05;65.88;100200.88;5376093;32;34999;-69
2022/04/20 02:43:30;;;;;;;18.53;11.17;;;;;;;6.80;66.68;100207.66;5390829;32;34567;-78
2022/04/20 02:46:33;;;;;;;19.00;11.23;;;;;;;6.47;67.71;100206.78;5382913;32;37368;-71
2022/04/20 02:49:35;;;;;;;18.80;10.63;;;;;;;5.84;69.13;100200.41;5363493;32;34798;-70
2022/04/20 02:52:37;;;;;;;17.53;11.33;;;;;;;6.04;69.68;100205.19;5345928;32;35182;-70
2022/04/20 02:55:42;;;;;;;18.60;11.20;;;;;;;5.89;69.42;100209.00;5345880;32;34522;-69
2022/04/20 02:58:44;;;;;;;17.87;11.13;;;;;;;6.47;67.78;100207.63;5384586;32;35125;-69
2022/04/20 03:01:46;;;;;;;24.93;11.90;;;;;;;5.57;70.48;100214.06;5352907;32;35041;-76
2022/04/20 03:04:49;;;;;;;17.80;11.50;;;;;;;5.51;71.62;100219.41;5374982;32;34157;-77
2022/04/20 03:07:51;;;;;;;18.03;11.60;;;;;;;5.23;73.52;100214.75;5369443;32;34938;-77
2022/04/20 03:10:53;;;;;;;18.60;11.63;;;;;;;6.22;69.18;100206.50;5385170;32;34656;-76
2022/04/20 03:13:56;;;;;;;18.70;11.83;;;;;;;5.09;73.85;100224.59;5370495;32;35587;-68
2022/04/20 03:16:59;;;;;;;19.23;11.80;;;;;;;5.24;72.19;100219.09;5373426;32;34464;-78
2022/04/20 03:20:02;;;;;;;18.73;12.32;;;;;;;5.33;73.39;100221.50;5393057;32;34055;-70
2022/04/20 03:23:05;;;;;;;18.77;12.53;;;;;;;4.86;74.43;100225.03;5374057;32;34790;-78
2022/04/20 03:26:08;;;;;;;21.13;12.27;;;;;;;4.96;73.71;100233.50;5371442;32;35247;-78
2022/04/20 03:29:10;;;;;;;20.17;12.07;;;;;;;4.98;73.90;100222.19;5373583;32;34982;-69
2022/04/20 03:32:13;;;;;;;20.47;12.33;;;;;;;5.06;74.13;100224.66;5384252;32;34289;-70
2022/04/20 03:35:16;;;;;;;21.23;12.70;;;;;;;4.98;74.71;100231.75;5390634;32;35195;-77
2022/04/20 03:38:18;;;;;;;27.67;13.25;;;;;;;5.29;71.66;100217.25;5368911;32;35425;-69
2022/04/20 03:41:22;;;;;;;23.37;13.17;;;;;;;5.27;72.76;100225.97;5383184;32;34832;-77
2022/04/20 03:44:25;;;;;;;21.67;12.55;;;;;;;5.19;73.84;100228.72;5365419;32;44549;-69
2022/04/20 03:47:27;;;;;;;24.20;15.50;;;;;;;5.59;69.84;100220.09;5395778;32;34613;-69
2022/04/20 03:50:29;;;;;;;19.77;13.43;;;;;;;5.39;70.56;100221.38;5371592;32;34709;-79
2022/04/20 03:53:31;;;;;;;24.40;13.33;;;;;;;5.30;72.34;100234.59;5378132;32;35979;-77
2022/04/20 03:59:54;;;;;;;20.63;12.27;;;;;;;5.55;71.20;100234.09;5374979;32;43024;-69
2022/04/20 04:02:57;;;;;;;22.03;12.83;;;;;;;5.15;71.85;100235.75;5398385;32;34087;-79
2022/04/20 04:05:59;;;;;;;30.00;13.33;;;;;;;5.35;71.70;100230.16;5360404;32;35144;-70
2022/04/20 04:09:01;;;;;;;20.33;13.37;;;;;;;4.97;72.88;100237.84;5378425;32;34632;-70
2022/04/20 04:12:07;;;;;;;20.83;12.67;;;;;;;5.12;71.23;100234.94;5362045;32;35153;-69
2022/04/20 04:15:10;;;;;;;19.97;11.97;;;;;;;5.42;70.45;100236.09;5354858;32;36415;-70
2022/04/20 04:18:12;;;;;;;22.00;11.97;;;;;;;6.19;67.59;100232.69;5369213;32;34191;-77
2022/04/20 04:21:14;;;;;;;19.33;11.80;;;;;;;6.81;64.32;100229.41;5371195;32;35327;-77
2022/04/20 04:24:35;;;;;;;20.93;11.70;;;;;;;6.72;64.32;100243.56;5391297;32;34356;-69
2022/04/20 04:27:37;;;;;;;18.37;10.87;;;;;;;6.34;65.79;100245.38;5372200;32;35351;-77
2022/04/20 04:30:39;;;;;;;18.13;11.13;;;;;;;6.15;67.61;100251.91;5381791;32;35926;-70
2022/04/20 04:33:41;;;;;;;20.30;12.07;;;;;;;6.82;64.60;100252.88;5386008;32;34643;-69
2022/04/20 04:36:44;;;;;;;32.97;13.00;;;;;;;6.72;64.96;100254.03;5360338;32;34242;-77
2022/04/20 04:39:46;;;;;;;21.13;11.37;;;;;;;6.81;64.10;100255.53;5390355;32;35536;-69
2022/04/20 04:42:48;;;;;;;18.33;11.30;;;;;;;7.28;61.87;100257.75;5354069;32;34343;-76
2022/04/20 04:49:12;;;;;;;18.00;10.30;;;;;;;7.22;62.22;100257.91;5377614;32;34997;-70
2022/04/20 04:52:14;;;;;;;17.30;10.40;;;;;;;6.79;62.18;100258.19;5376643;32;34160;-70
2022/04/20 04:55:16;;;;;;;24.67;10.43;;;;;;;7.14;62.53;100262.47;5347879;32;35342;-71
2022/04/20 04:58:18;;;;;;;18.90;10.00;;;;;;;7.48;60.57;100261.56;5338716;32;34982;-69
2022/04/20 05:01:20;;;;;;;14.47;9.27;;;;;;;7.88;58.30;100256.03;5370723;32;35269;-69
2022/04/20 05:04:22;;;;;;;17.77;9.13;;;;;;;7.47;57.98;100247.63;5356438;32;44437;-79
2022/04/20 05:07:25;;;;;;;21.90;12.13;;;;;;;7.40;58.72;100266.12;5396495;32;34045;-67
2022/04/20 05:10:27;;;;;;;21.43;10.93;;;;;;;8.06;57.72;100258.09;5387203;32;34143;-73
2022/04/20 05:13:29;;;;;;;18.77;9.60;;;;;;;7.72;57.07;100263.44;5371132;32;34806;-66
2022/04/20 05:16:31;;;;;;;17.70;8.97;;;;;;;8.20;56.59;100257.66;5398229;32;35265;-68
2022/04/20 05:19:34;;;;;;;16.77;8.90;;;;;;;8.51;55.11;100251.47;5370077;32;35567;-68
2022/04/20 05:22:37;;;;;;;16.17;9.00;;;;;;;9.34;52.96;100259.94;5386446;32;35238;-68
2022/04/20 05:25:39;;;;;;;16.57;9.17;;;;;;;8.50;55.99;100274.19;5374303;32;34156;-77
2022/04/20 05:28:42;;;;;;;14.82;8.40;;;;;;;8.17;56.45;100260.34;5347614;32;34992;-72
2022/04/20 05:31:44;;;;;;;15.60;8.63;;;;;;;8.36;55.62;100268.50;5379558;32;35021;-71
2022/04/20 05:34:46;;;;;;;17.57;8.70;;;;;;;8.54;55.47;100267.94;5386470;32;35389;-77
2022/04/20 05:41:39;;;;;;;14.30;8.73;;;;;;;9.15;54.36;100270.25;5381153;32;37517;-70
2022/04/20 05:44:41;;;;;;;13.43;8.60;;;;;;;10.17;50.75;100266.41;5372719;32;34160;-69
2022/04/20 05:47:44;;;;;;;20.30;8.63;;;;;;;10.75;50.37;100261.47;5387527;32;34018;-83
2022/04/20 05:50:46;;;;;;;20.00;10.20;;;;;;;10.53;49.22;100263.28;5368313;32;34035;-76
2022/04/20 05:53:48;;;;;;;12.52;8.02;;;;;;;11.24;48.18;100274.31;5371407;32;34050;-68
2022/04/20 05:56:51;;;;;;;14.10;7.77;;;;;;;12.90;43.96;100263.84;5349466;32;35580;-68
2022/04/20 05:59:53;;;;;;;11.73;7.70;;;;;;;12.36;43.87;100255.09;5360294;32;44415;-72
2022/04/20 06:02:56;;;;;;;13.25;8.20;;;;;;;11.96;44.58;100253.50;5364470;32;35273;-71
2022/04/20 06:06:01;;;;;;;13.90;7.90;;;;;;;13.42;42.50;100253.28;5365241;32;32983;-94
2022/04/20 06:09:03;;;;;;;11.87;8.13;;;;;;;14.08;40.19;100247.03;5377527;32;36944;-71
2022/04/20 06:12:07;;;;;;;12.10;7.70;;;;;;;15.56;37.17;100240.13;5364103;32;36189;-81
2022/04/20 06:15:09;;;;;;;;;;;;;;;15.53;37.05;100241.19;5370827;32;34192;-81
2022/04/20 06:18:11;;;;;;;17.30;8.03;;;;;;;15.81;36.50;100240.31;5359245;32;35397;-77
2022/04/20 06:21:13;;;;;;;14.98;8.45;;;;;;;15.57;37.63;100242.66;5366099;32;34948;-79
2022/04/20 06:24:15;;;;;;;14.20;7.90;;;;;;;15.51;36.89;100237.75;5364164;32;35297;-73
2022/04/20 06:27:20;;;;;;;12.03;8.37;;;;;;;16.70;34.64;100240.75;5360827;32;34071;-72
2022/04/20 06:30:22;;;;;;;;;;;;;;;17.13;33.93;100243.16;5356562;32;43833;-70
2022/04/20 06:33:25;;;;;;;17.27;9.93;;;;;;;15.81;36.20;100242.97;5375368;32;33364;-74
2022/04/20 06:36:28;;;;;;;11.48;7.82;;;;;;;15.36;37.60;100238.69;5353610;32;35792;-77
2022/04/20 06:39:30;;;;;;;17.60;7.90;;;;;;;16.49;34.33;100240.34;5349852;32;34231;-78
2022/04/20 06:42:33;;;;;;;15.15;7.70;;;;;;;15.94;35.39;100241.25;5377269;32;35235;-75
2022/04/20 06:45:35;;;;;;;;;;;;;;;17.22;33.23;100226.59;5361210;32;34212;-79
2022/04/20 06:48:37;;;;;;;12.37;6.70;;;;;;;16.47;33.79;100230.75;5364146;32;34147;-71
2022/04/20 06:58:38;;;;;;;14.52;6.75;;;;;;;17.32;31.73;100217.03;5382557;32;34204;-78
2022/04/20 07:01:40;;;;;;;10.15;6.35;;;;;;;16.28;33.23;100223.16;5376823;32;34647;-76
2022/04/20 07:04:43;;;;;;;11.10;6.15;;;;;;;17.27;31.61;100213.84;5375350;32;34125;-73
2022/04/20 07:07:45;;;;;;;12.30;5.80;;;;;;;19.09;27.89;100202.31;5383471;32;34810;-74
2022/04/20 07:10:59;;;;;;;14.07;10.20;;;;;;;19.71;27.43;100205.38;5362129;32;43040;-75
2022/04/20 07:14:01;;;;;;;;;;;;;;;20.50;25.95;100205.22;5381749;32;35515;-72
2022/04/20 07:17:06;;;;;;;8.35;5.72;;;;;;;17.12;31.04;100212.22;5371463;32;34191;-73
2022/04/20 07:20:10;;;;;;;10.02;6.68;;;;;;;18.00;29.47;100206.94;5366546;32;34086;-71
2022/04/20 07:23:13;;;;;;;13.60;7.93;;;;;;;15.19;33.72;100213.25;5385208;32;35294;-82
2022/04/20 07:26:15;;;;;;;8.48;5.65;;;;;;;16.79;31.55;100210.91;5369275;32;34839;-80
2022/04/20 07:29:17;;;;;;;8.73;5.30;;;;;;;16.98;31.78;100212.31;5377132;32;34767;-73
2022/04/20 07:32:20;;;;;;;10.02;5.05;;;;;;;20.07;25.74;100199.84;5373957;32;34269;-73
2022/04/20 07:35:22;;;;;;;10.80;5.93;;;;;;;18.51;27.58;100212.03;5369261;32;44803;-70
2022/04/20 07:38:25;;;;;;;9.60;5.22;;;;;;;18.68;27.49;100214.31;5358537;32;35242;-81
2022/04/20 07:41:28;;;;;;;10.13;5.00;;;;;;;19.37;26.47;100203.66;5384378;32;34033;-72
2022/04/20 07:44:30;;;;;;;10.20;5.12;;;;;;;19.30;26.60;100205.09;5388413;32;34136;-72
2022/04/20 07:47:32;;;;;;;8.68;5.22;;;;;;;17.54;28.60;100211.03;5357682;32;33777;-72
2022/04/20 07:50:35;;;;;;;8.38;4.93;;;;;;;16.95;29.02;100213.41;5371705;32;33994;-76
2022/04/20 07:53:37;;;;;;;10.55;6.12;;;;;;;19.73;25.95;100189.25;5364809;32;35461;-75
2022/04/20 07:56:39;;;;;;;11.82;6.90;;;;;;;17.42;29.40;100209.25;5369757;32;34083;-75
2022/04/20 07:59:42;;;;;;;10.63;4.80;;;;;;;20.45;25.22;100199.41;5360461;32;35336;-73
2022/04/20 08:02:45;;;;;;;10.73;5.68;;;;;;;17.84;28.78;100204.53;5380396;32;34075;-78
2022/04/20 08:05:52;;;;;;;9.93;4.60;;;;;;;17.68;28.22;100202.09;5390566;32;34076;-77
2022/04/20 08:08:54;;;;;;;11.02;5.30;;;;;;;21.29;22.96;100192.28;5365452;32;47898;-68
2022/04/20 08:11:57;;;;;;;10.70;5.80;;;;;;;21.28;22.72;100182.53;5376149;32;33667;-67
2022/04/20 08:14:59;;;;;;;8.93;4.80;;;;;;;19.76;25.09;100186.34;5380591;32;33736;-65
2022/04/20 08:18:03;;;;;;;13.82;9.27;;;;;;;22.65;20.80;100180.03;5381946;32;34008;-72
2022/04/20 08:21:05;;;;;;;12.13;5.80;;;;;;;20.07;24.53;100176.69;5362324;32;35470;-76
2022/04/20 08:24:08;;;;;;;7.12;5.15;;;;;;;22.27;22.02;100172.84;5364508;32;35761;-70
2022/04/20 08:27:10;;;;;;;13.15;4.62;;;;;;;20.46;23.16;100169.06;5373631;32;34054;-69
2022/04/20 08:30:15;;;;;;;9.05;4.90;;;;;;;22.14;21.31;100165.94;5361781;32;35619;-73
2022/04/20 08:33:17;;;;;;;8.13;5.12;;;;;;;21.03;22.73;100163.25;5391992;32;35344;-80
2022/04/20 08:36:22;;;;;;;7.40;4.65;;;;;;;19.73;24.14;100170.59;5377418;32;42730;-84
2022/04/20 08:39:24;;;;;;;8.55;4.85;;;;;;;20.01;23.65;100164.69;5377250;32;34317;-72
2022/04/20 08:42:29;;;;;;;8.52;4.55;;;;;;;18.25;26.22;100174.91;5377758;32;35529;-79
2022/04/20 08:45:37;;;;;;;8.13;4.40;;;;;;;21.06;22.52;100163.03;5389282;32;35209;-70
2022/04/20 08:48:40;;;;;;;9.07;4.53;;;;;;;21.78;21.25;100153.19;5393093;32;34014;-66
2022/04/20 08:55:17;;;;;;;7.18;4.00;;;;;;;20.46;22.91;100161.06;5395106;32;35849;-65
2022/04/20 08:58:20;;;;;;;9.18;4.72;;;;;;;20.69;22.18;100156.47;5368105;32;34092;-80
2022/04/20 09:01:28;;;;;;;7.10;4.35;;;;;;;19.51;23.58;100150.09;5384073;32;44092;-70
2022/04/20 09:04:30;;;;;;;7.40;4.20;;;;;;;18.34;24.97;100155.59;5396554;32;34643;-77
2022/04/20 09:07:33;;;;;;;6.03;4.18;;;;;;;20.53;22.83;100149.72;5384522;32;35069;-82
2022/04/20 09:10:36;;;;;;;6.65;4.47;;;;;;;21.13;22.30;100149.13;5394042;32;34088;-71
2022/04/20 09:13:41;;;;;;;8.13;4.50;;;;;;;24.38;18.78;100137.38;5357596;32;35593;-74
2022/04/20 09:16:43;;;;;;;12.27;5.45;;;;;;;21.16;21.85;100143.50;5377499;32;34132;-73
2022/04/20 09:19:46;;;;;;;;;;;;;;;23.16;19.44;100135.94;5378783;32;35322;-72
2022/04/20 09:23:09;;;;;;;9.75;4.60;;;;;;;19.96;23.21;100145.56;5382071;32;34891;-85
2022/04/20 09:26:23;;;;;;;8.45;5.03;;;;;;;19.35;23.90;100145.16;5385353;32;35351;-81
2022/04/20 09:29:25;;;;;;;11.35;4.82;;;;;;;19.51;23.45;100141.25;5380506;32;44169;-80
2022/04/20 09:32:38;;;;;;;9.65;4.45;;;;;;;19.90;23.31;100140.75;5393377;32;35063;-85
2022/04/20 09:35:40;;;;;;;;;;;;;;;20.29;22.17;100136.59;5388409;32;34394;-76
2022/04/20 09:39:03;;;;;;;6.85;4.30;;;;;;;18.49;22.78;100142.13;5395149;32;34155;-78
2022/04/20 09:42:08;;;;;;;7.95;5.12;;;;;;;17.50;25.01;100132.50;5397384;32;34241;-72
2022/04/20 09:45:12;;;;;;;8.23;4.32;;;;;;;18.44;24.06;100128.31;5383963;32;34213;-72
2022/04/20 09:51:41;;;;;;;6.97;5.35;;;;;;;20.45;21.25;100127.34;5384057;32;36119;-77
2022/04/20 09:54:53;;;;;;;10.25;6.70;;;;;;;21.47;19.13;100117.63;5382727;32;34041;-73
2022/04/20 09:58:18;;;;;;;11.93;8.20;;;;;;;20.55;19.69;100131.78;5358633;32;46461;-75
2022/04/20 10:01:25;;;;;;;6.22;3.20;;;;;;;21.88;18.54;100116.59;5362138;32;35242;-73
2022/04/20 10:04:30;;;;;;;9.82;4.50;;;;;;;21.96;18.89;100114.09;5367419;32;44279;-68
2022/04/20 10:07:34;;;;;;;5.53;3.45;;;;;;;21.55;19.45;100105.25;5377862;32;34522;-78
2022/04/20 10:10:36;;;;;;;7.72;4.57;;;;;;;23.04;17.23;100103.12;5382843;32;35346;-74
2022/04/20 10:13:39;;;;;;;7.28;3.90;;;;;;;19.11;21.42;100120.44;5398138;32;34230;-86
2022/04/20 10:16:52;;;;;;;7.60;4.35;;;;;;;21.38;19.33;100103.22;5386735;32;34131;-78
2022/04/20 10:19:54;;;;;;;;;;;;;;;18.22;23.61;100119.25;5386957;32;45180;-72
2022/04/20 10:22:57;;;;;;;8.52;4.68;;;;;;;20.58;20.40;100111.13;5375171;32;34265;-74
2022/04/20 10:26:09;;;;;;;8.43;4.03;;;;;;;17.87;24.06;100111.25;5371113;32;34068;-76
2022/04/20 10:29:16;;;;;;;6.80;4.18;;;;;;;21.24;20.21;100103.59;5395373;32;35556;-81
2022/04/20 10:32:25;;;;;;;6.18;3.70;;;;;;;22.67;18.33;100098.56;5382639;32;37764;-81
2022/04/20 10:35:28;;;;;;;8.52;4.20;;;;;;;22.01;18.51;100106.44;5408478;32;44588;-76
2022/04/20 10:38:31;;;;;;;6.78;4.20;;;;;;;22.25;18.36;100098.03;5386026;32;34103;-78
2022/04/20 10:41:33;;;;;;;11.05;5.22;;;;;;;18.87;21.92;100110.75;5384912;32;33898;-70
2022/04/20 10:45:00;;;;;;;5.95;4.10;;;;;;;19.96;21.32;100110.88;5390054;32;35199;-72
2022/04/20 10:48:03;;;;;;;9.25;4.50;;;;;;;20.33;21.49;100107.81;5367124;32;34451;-81
2022/04/20 10:51:14;;;;;;;8.65;4.37;;;;;;;21.09;20.21;100103.94;5392752;32;35846;-70
2022/04/20 10:54:23;;;;;;;7.85;4.15;;;;;;;22.00;18.51;100093.22;5368009;32;34267;-73
2022/04/20 10:57:34;;;;;;;7.28;3.97;;;;;;;21.47;19.43;100089.06;5347635;32;44432;-72
2022/04/20 11:00:37;;;;;;;6.68;3.72;;;;;;;22.00;18.53;100094.06;5388167;32;35559;-70
2022/04/20 11:03:57;;;;;;;5.93;3.87;;;;;;;22.09;18.44;100090.59;5384946;32;33991;-71
2022/04/20 11:06:59;;;;;;;8.07;3.78;;;;;;;21.39;18.65;100090.75;5383946;32;46448;-73
2022/04/20 11:10:06;;;;;;;8.93;4.65;;;;;;;20.52;20.09;100091.13;5369245;32;34418;-74
2022/04/20 11:20:25;;;;;;;8.13;4.50;;;;;;;18.88;21.97;100093.81;5389241;32;34167;-74
2022/04/20 11:23:50;;;;;;;7.65;4.50;;;;;;;20.99;19.18;100086.19;5410346;32;34029;-71
2022/04/20 11:26:54;;;;;;;7.43;4.75;;;;;;;19.99;20.52;100088.47;5378567;32;45175;-73
2022/04/20 11:29:56;;;;;;;8.98;4.60;;;;;;;24.17;16.79;100080.44;5381397;32;35098;-71
2022/04/20 11:33:03;;;;;;;7.37;4.65;;;;;;;24.42;16.02;100070.78;5398471;32;33907;-71
2022/04/20 11:36:06;;;;;;;8.35;4.20;;;;;;;26.10;13.96;100066.44;5366021;32;33850;-71
2022/04/20 11:39:09;;;;;;;6.97;4.37;;;;;;;23.31;16.04;100071.94;5384187;32;35162;-71
2022/04/20 11:42:11;;;;;;;6.75;4.22;;;;;;;22.62;16.60;100066.00;5381909;32;34774;-71
2022/04/20 11:45:32;;;;;;;6.87;4.30;;;;;;;23.97;14.53;100063.66;5389580;32;34137;-74
2022/04/20 11:48:35;;;;;;;8.00;5.07;;;;;;;21.74;17.04;100061.66;5388816;32;37698;-73
2022/04/20 11:51:39;;;;;;;9.45;5.05;;;;;;;22.21;17.12;100063.66;5369864;32;35179;-72
2022/04/20 11:54:46;;;;;;;9.70;5.50;;;;;;;21.52;17.53;100056.59;5380717;32;37187;-68
2022/04/20 11:57:49;;;;;;;11.05;5.47;;;;;;;20.55;18.56;100065.03;5361660;32;34579;-70
2022/04/20 12:01:02;;;;;;;9.75;5.80;;;;;;;19.68;19.18;100072.31;5388541;32;33236;-70
2022/04/20 12:04:14;;;;;;;9.40;5.43;;;;;;;18.55;19.59;100075.13;5381221;32;34323;-70
2022/04/20 12:07:17;;;;;;;9.35;5.95;;;;;;;20.50;17.45;100053.06;5377405;32;35593;-68
2022/04/20 12:10:20;;;;;;;9.65;6.07;;;;;;;22.87;15.45;100044.94;5382685;32;36956;-74
2022/04/20 12:13:29;;;;;;;12.43;6.80;;;;;;;22.86;15.92;100056.59;5368218;32;45466;-73
2022/04/20 12:16:35;;;;;;;11.35;6.95;;;;;;;24.02;15.40;100058.63;5386652;32;35212;-72
2022/04/20 12:19:40;;;;;;;11.55;6.97;;;;;;;19.21;19.92;100066.31;5383433;32;33782;-74
2022/04/20 12:22:44;;;;;;;10.32;6.82;;;;;;;21.95;17.69;100056.19;5383988;32;33977;-80
2022/04/20 12:25:53;;;;;;;10.98;7.03;;;;;;;25.04;14.66;100034.69;5374460;32;34173;-81
2022/04/20 12:28:59;;;;;;;9.23;6.32;;;;;;;21.35;18.08;100048.22;5359993;32;44526;-75
2022/04/20 12:32:01;;;;;;;11.05;6.57;;;;;;;23.04;16.15;100037.94;5389526;32;34037;-77
2022/04/20 12:35:05;;;;;;;11.12;5.97;;;;;;;23.17;15.35;100038.44;5370825;32;35290;-71
2022/04/20 12:38:07;;;;;;;10.05;6.55;;;;;;;26.28;13.71;100028.56;5384088;32;34417;-75
2022/04/20 12:41:35;;;;;;;10.50;6.95;;;;;;;23.32;15.95;100044.16;5390763;32;34689;-76
2022/04/20 12:44:47;;;;;;;10.07;6.43;;;;;;;20.32;18.67;100047.41;5384089;32;34174;-72
2022/04/20 12:47:50;;;;;;;12.30;6.85;;;;;;;20.04;18.56;100045.41;5394298;32;33664;-69
2022/04/20 12:50:55;;;;;;;9.43;6.78;;;;;;;20.94;18.06;100041.19;5377198;32;44582;-68
2022/04/20 12:53:57;;;;;;;10.68;6.85;;;;;;;20.15;18.39;100045.31;5383417;32;37406;-74
2022/04/20 13:03:46;;;;;;;12.90;7.07;;;;;;;16.89;21.97;100046.59;5388878;32;34795;-68
2022/04/20 13:06:48;;;;;;;11.02;6.87;;;;;;;18.10;21.48;100048.41;5375876;32;34114;-77
2022/04/20 13:09:50;;;;;;;10.90;6.27;;;;;;;16.87;22.46;100048.47;5389829;32;35752;-88
2022/04/20 13:12:54;;;;;;;13.32;6.55;;;;;;;17.52;21.53;100042.91;5386345;32;46045;-86
2022/04/20 13:15:56;;;;;;;11.07;5.87;;;;;;;17.80;19.52;100040.91;5366266;32;34214;-69
2022/04/20 13:18:59;;;;;;;13.02;6.53;;;;;;;17.42;20.58;100046.34;5390183;32;33826;-74
2022/04/20 13:22:02;;;;;;;10.27;6.20;;;;;;;17.12;22.42;100049.41;5375705;32;35355;-74
2022/04/20 13:28:28;;;;;;;11.37;6.50;;;;;;;16.85;22.34;100037.13;5371589;32;45331;-72
2022/04/20 13:31:31;;;;;;;;;;;;;;;16.34;22.77;100030.97;5380845;32;33967;-70
2022/04/20 13:34:33;;;;;;;12.65;6.87;;;;;;;16.99;21.72;100031.69;5380396;32;34457;-70
2022/04/20 13:37:35;;;;;;;13.70;6.90;;;;;;;15.28;23.90;100030.00;5380141;32;35304;-72
2022/04/20 13:40:39;;;;;;;12.95;8.48;;;;;;;16.51;22.91;100023.53;5371984;32;33913;-70
2022/04/20 13:43:42;;;;;;;11.60;6.93;;;;;;;18.07;21.62;100024.69;5362777;32;35340;-73
2022/04/20 13:46:44;;;;;;;12.95;7.30;;;;;;;18.67;21.03;100018.28;5363588;32;35669;-70
2022/04/20 13:49:47;;;;;;;15.98;8.48;;;;;;;17.56;22.77;100023.13;5379256;32;37354;-70
2022/04/20 13:52:49;;;;;;;16.60;8.45;;;;;;;17.05;23.85;100023.28;5360811;32;34622;-73
2022/04/20 13:55:52;;;;;;;11.60;7.57;;;;;;;16.78;24.22;100027.91;5371367;32;44731;-68
2022/04/20 13:58:54;;;;;;;13.68;8.18;;;;;;;18.19;22.68;100023.75;5357684;32;34301;-71
2022/04/20 14:01:56;;;;;;;11.80;8.03;;;;;;;17.11;24.06;100023.81;5384624;32;33997;-69
2022/04/20 14:04:58;;;;;;;14.30;7.67;;;;;;;17.22;23.53;100022.09;5379443;32;34937;-70
2022/04/20 14:08:01;;;;;;;13.40;8.07;;;;;;;16.83;23.90;100028.44;5366706;32;35627;-69
2022/04/20 14:11:03;;;;;;;12.45;7.43;;;;;;;15.97;25.09;100034.31;5359949;32;34954;-66
2022/04/20 14:14:05;;;;;;;13.07;7.83;;;;;;;16.16;24.43;100019.81;5367627;32;35380;-71
2022/04/20 14:17:10;;;;;;;11.68;7.10;;;;;;;16.28;24.37;100024.28;5387585;32;35546;-71
2022/04/20 14:20:13;;;;;;;12.70;8.20;;;;;;;17.16;23.73;100021.69;5373845;32;33740;-75
2022/04/20 14:23:16;;;;;;;11.97;7.47;;;;;;;17.08;23.80;100027.53;5390484;32;36004;-71
2022/04/20 14:33:13;;;;;;;12.20;8.10;;;;;;;17.20;23.44;100023.16;5338957;32;34204;-70
2022/04/20 14:36:19;;;;;;;12.67;8.17;;;;;;;16.17;24.52;100035.62;5354007;32;34037;-71
2022/04/20 14:39:21;;;;;;;12.45;8.30;;;;;;;16.31;24.32;100033.84;5386297;32;37797;-70
2022/04/20 14:42:24;;;;;;;18.77;8.83;;;;;;;16.39;23.98;100035.00;5363395;32;35558;-71
2022/04/20 14:45:27;;;;;;;12.17;8.30;;;;;;;16.20;24.15;100035.41;5369162;32;34673;-71
2022/04/20 14:48:29;;;;;;;14.05;7.95;;;;;;;17.02;22.96;100027.97;5379886;32;34387;-73
2022/04/20 14:51:31;;;;;;;12.73;8.20;;;;;;;16.02;24.43;100030.50;5372480;32;33977;-71
2022/04/20 14:54:35;;;;;;;12.07;6.43;;;;;;;16.14;24.05;100042.94;5371608;32;35287;-72
2022/04/20 14:57:37;;;;;;;;;;;;;;;15.09;24.29;100050.66;5339438;32;36116;-75
2022/04/20 15:00:40;;;;;;;12.18;7.75;;;;;;;15.79;23.89;100045.28;5360589;32;34756;-73